LEGE Airport Information

Runway Information
Runway 02 Length 7874 ft width 148 ft
Elevation 403 ft Threshold 0 ft Heading 16
Runway 20 Length 7874 ft Width 148 ft
Elevation 468 ft Threshold 0 ft Heading 196
Airport Frequencies
Type APP Name APP Frequency 120.9 MHZ
Type GND Name GND Frequency 121.7 MHZ
Type TWR Name TWR Frequency 118.5 MHZ
Airport Navaids
Type VOR-DME Name Gerona Frequency 114100 KHZ
Type NDB Name Gerona Frequency 412 KHZ
Airport Weather Information & NOTAM
ADDS - METARS form results

(1045 UTC 22 February 2019)
Data provider http://aviationweather.gov/metar/data/
 
METAR text: LEGE 221030Z 23001KT CAVOK 15/06 Q1028
Conditions at: LEGE (GERONA/COSTA BRA, ES) observed 1030 UTC 22 February 2019
Temperature: 15.0°C (59°F)
Dewpoint: 6.0°C (43°F) [RH = 55%]
Pressure (altimeter): 30.35 inches Hg (1028.0 mb)
Winds: from the SW (230 degrees) at 1 MPH (1 knots; 0.5 m/s)
Visibility: 6 or more miles (10+ km)
Ceiling: ceiling and visibility are OK
Clouds: unknown
Weather: no significant weather observed at this time

METAR text: LEGE 221000Z VRB01KT CAVOK 13/06 Q1029
Conditions at: LEGE (GERONA/COSTA BRA, ES) observed 1000 UTC 22 February 2019
Temperature: 13.0°C (55°F)
Dewpoint: 6.0°C (43°F) [RH = 62%]
Pressure (altimeter): 30.38 inches Hg (1029.0 mb)
Winds: variable direction winds at 1 MPH (1 knots; 0.5 m/s)
Visibility: 6 or more miles (10+ km)
Ceiling: ceiling and visibility are OK
Clouds: unknown
Weather: no significant weather observed at this time

Forecast for: LEGE (GERONA/COSTA BRA, ES)
Text: TAF LEGE 220500Z 2206/2306 VRB03KT 9999 FEW020 TX24/2213Z TN03/2206Z
Forecast period: 0600 UTC 22 February 2019 to 0600 UTC 23 February 2019
Forecast type: FROM: standard forecast or significant change
Winds: variable direction winds at 3 MPH (3 knots; 1.5 m/s)
Visibility: 6 or more miles 10+ km)
Ceiling: at least 12,000 feet AGL
Clouds: few clouds at 2000 feet AGL
Weather: no significant weather forecast for this period
Text: TEMPO 2206/2209 2000 BR BKN004
Forecast period: 0600 to 0900 UTC 22 February 2019
Forecast type: TEMPORARY: The following changes expected for less than half the time period
Visibility: 1.24 miles (2.00 km)
Ceiling: 400 feet AGL
Clouds: broken clouds at 400 feet AGL
Weather: BR  (mist)
Text: PROB40
Forecast period: 0600 to 0800 UTC 22 February 2019
Forecast type: TEMPORARY: The following changes expected for less than half the time period
Visibility: 0.31 miles (0.50 km)
Ceiling: indefinite ceiling with vertical visibility of 100 feet AGL
Clouds: obscured sky
Weather: FG  (fog)
Text: TEMPO 2206/2208 0500 FG VV001
Forecast period: 1500 to 1800 UTC 22 February 2019
Forecast type: TEMPORARY: The following changes expected for less than half the time period
Winds: from the NE (40 degrees) at 12 MPH (10 knots; 5.1 m/s)
gusting to 23 MPH (20 knots; 10.3 m/s)
Visibility: missing
Ceiling: unknown
Clouds: missing
Weather: no significant weather forecast for this period